SCPB weather

Puelo Bajo Airport
Puelo Bajo, Los Lagos Region, Chile

Public forecast

Using degrees Celsius for public forecast. Weather courtesy of forecast.io.

METAR (pilot weather report)

Closest report is El Tepual Airport, 38.0 nm (70.4 km) WNW. Retrieved 2019/04/23 10:00 UTC (10 minutes ago):

SCTE 231000Z 17011KT 9999 OVC013 09/07 Q1019 NOSIG

TAF (pilot weather forecast)

Closest forecast is El Tepual Airport, 38.0 nm (70.4 km) WNW. Retrieved 2019/04/23 06:00 UTC (4 hours ago):

TAF SCTE 230401Z 2306/2406 VRB03KT 9999 OVC010 TN07/2310Z TX12/2320Z TEMPO 2307/2313 4000 BR SCT004 OVC008 BECMG 2314/2316 17006KT BKN025 BECMG 2318/2320 SCT030 BECMG 2401/2403 VRB03KT